This is the latest recevied weather packets stored in our database for station/object K3BAY-1. If no packets are shown the sender has not sent any weather packets the latest 10 day(s).
| Time | Temp. | Humidity | Pressure | Rain* | Wind** | Luminosity | Snow |
|---|---|---|---|---|---|---|---|
| 1777320927 | 20.56° C | 45% | 1025.1 hPa | 0 mm | - | 476 W/m² | - |
| 1777320625 | 20.56° C | 45% | 1025.1 hPa | 0 mm | - | 476 W/m² | - |
| 1777320322 | 21.67° C | 45% | 1024.7 hPa | 0 mm | - | 474 W/m² | - |
| 1777320018 | 21.11° C | 45% | 1025.1 hPa | 0 mm | - | 391 W/m² | - |
| 1777319716 | 21.11° C | 45% | 1025.1 hPa | 0 mm | - | 391 W/m² | - |
| 1777319413 | 20.56° C | 47% | 1024.7 hPa | 0 mm | - | 422 W/m² | - |
| 1777319110 | 21.67° C | 46% | 1025.1 hPa | 0 mm | - | 484 W/m² | - |
| 1777318807 | 21.11° C | 47% | 1025.1 hPa | 0 mm | - | 563 W/m² | - |
| 1777318503 | 21.67° C | 46% | 1025.1 hPa | 0 mm | - | 576 W/m² | - |
| 1777318200 | 21.11° C | 47% | 1025.1 hPa | 0 mm | - | 588 W/m² | - |
| 1777317897 | 20.56° C | 48% | 1025.1 hPa | 0 mm | - | 617 W/m² | - |
| 1777317594 | 20° C | 51% | 1025.1 hPa | 0 mm | - | 606 W/m² | - |
| 1777317291 | 20.56° C | 49% | 1025.1 hPa | 0 mm | - | 574 W/m² | - |
| 1777316986 | 21.67° C | 47% | 1024.7 hPa | 0 mm | - | 594 W/m² | - |
| 1777316684 | 20.56° C | 49% | 1025.1 hPa | 0 mm | - | 607 W/m² | - |
| 1777316379 | 20° C | 46% | 1024.7 hPa | 0 mm | - | 533 W/m² | - |
| 1777316078 | 20.56° C | 44% | 1024.7 hPa | 0 mm | - | 603 W/m² | - |
| 1777315776 | 20.56° C | 45% | 1024.7 hPa | 0 mm | - | 620 W/m² | - |
| 1777315474 | 21.67° C | 42% | 1025.1 hPa | 0 mm | - | 655 W/m² | - |
| 1777315171 | 20° C | 44% | 1025.1 hPa | 0 mm | - | 622 W/m² | - |
| 1777314867 | 20.56° C | 45% | 1025.4 hPa | 0 mm | - | 698 W/m² | - |
| 1777314563 | 20° C | 48% | 1025.1 hPa | 0 mm | - | 713 W/m² | - |
| 1777314260 | 20.56° C | 46% | 1025.1 hPa | 0 mm | - | 734 W/m² | - |
| 1777313958 | 21.11° C | 46% | 1025.4 hPa | 0 mm | - | 739 W/m² | - |
| 1777313655 | 20.56° C | 47% | 1025.4 hPa | 0 mm | - | 744 W/m² | - |
* Rain latest hour (hover to see other rain measurements)
** Current wind speed in m/s (hover to see current wind gust speed)